Time;durP1;ratioP1;P1;durP2;ratioP2;P2;SDS_P1;SDS_P2;PMS_P1;PMS_P2;Temp;Humidity;BMP_temperature;BMP_pressure;BME280_temperature;BME280_humidity;BME280_pressure;Samples;Min_cycle;Max_cycle;Signal;HPM_P1;HPM_P2
2022/02/25 10:12:04;;;;;;;11.67;11.07;;;15.50;65.90;;;;;;5148787;27;21230;-78
2022/02/25 10:14:31;;;;;;;11.80;11.00;;;15.40;62.90;;;;;;5149328;27;20451;-77
2022/02/25 10:17:09;;;;;;;11.37;10.70;;;14.50;64.10;;;;;;5148894;27;20439;-76
2022/02/25 10:19:37;;;;;;;11.90;11.20;;;14.90;64.40;;;;;;5148573;27;20463;-76
2022/02/25 10:22:16;;;;;;;11.90;11.00;;;15.10;62.40;;;;;;5148803;27;20496;-75
2022/02/25 10:24:48;;;;;;;11.60;10.90;;;14.80;62.30;;;;;;5148601;27;20439;-78
2022/02/25 10:27:22;;;;;;;11.07;10.40;;;14.30;63.20;;;;;;5148702;27;20500;-75
2022/02/25 10:30:01;;;;;;;10.60;9.90;;;12.80;63.90;;;;;;5148507;27;20471;-76
2022/02/25 10:32:32;;;;;;;11.47;10.80;;;12.50;66.10;;;;;;5148456;27;20439;-77
2022/02/25 10:34:59;;;;;;;11.27;10.67;;;13.70;65.10;;;;;;5148691;27;20447;-78
2022/02/25 10:37:26;;;;;;;10.80;10.20;;;14.50;61.60;;;;;;5148404;27;20455;-78
2022/02/25 10:39:54;;;;;;;10.90;10.40;;;14.40;61.90;;;;;;5148263;27;20450;-79
2022/02/25 10:42:24;;;;;;;11.80;10.90;;;13.80;61.00;;;;;;5148335;27;20450;-78
2022/02/25 10:44:55;;;;;;;11.90;11.10;;;14.20;61.50;;;;;;5148303;27;20470;-79
2022/02/25 10:47:23;;;;;;;11.60;10.43;;;14.80;59.30;;;;;;5148091;27;20441;-78
2022/02/25 10:49:59;;;;;;;9.90;9.40;;;13.70;61.30;;;;;;5148201;27;20479;-76
2022/02/25 10:52:28;;;;;;;10.40;9.70;;;13.00;63.70;;;;;;5148256;27;20483;-77
2022/02/25 10:54:56;;;;;;;12.07;11.00;;;13.70;65.00;;;;;;5148075;27;20924;-78
2022/02/25 10:57:26;;;;;;;10.73;10.13;;;15.30;62.30;;;;;;5147928;27;20934;-77
2022/02/25 10:59:53;;;;;;;10.27;9.53;;;16.10;58.30;;;;;;5148169;27;20823;-78
2022/02/25 11:02:28;;;;;;;9.87;9.40;;;15.40;57.40;;;;;;5147682;27;20472;-79
2022/02/25 11:05:07;;;;;;;10.30;9.70;;;14.90;58.20;;;;;;5148072;27;20447;-77
2022/02/25 11:07:35;;;;;;;11.03;10.27;;;13.50;59.50;;;;;;5148014;27;20497;-78
2022/02/25 11:10:03;;;;;;;10.67;9.90;;;13.20;61.40;;;;;;5147995;27;20495;-77
2022/02/25 11:12:31;;;;;;;10.13;9.47;;;13.00;63.00;;;;;;5135072;27;20444;-77
2022/02/25 11:15:00;;;;;;;10.43;9.77;;;12.80;63.50;;;;;;5133928;27;20788;-75
2022/02/25 11:17:28;;;;;;;9.97;9.47;;;12.40;63.50;;;;;;5133894;27;20449;-75
2022/02/25 11:19:58;;;;;;;10.53;10.03;;;12.20;63.40;;;;;;5133941;27;21140;-75
2022/02/25 11:22:27;;;;;;;10.77;10.13;;;12.80;62.80;;;;;;5133806;27;20949;-76
2022/02/25 11:24:54;;;;;;;11.40;10.80;;;13.00;64.10;;;;;;5133924;27;20841;-75
2022/02/25 11:27:21;;;;;;;11.17;10.57;;;14.40;61.90;;;;;;5133729;27;20440;-77
2022/02/25 11:29:57;;;;;;;11.60;11.00;;;15.20;58.80;;;;;;5133713;27;20488;-77
2022/02/25 11:32:37;;;;;;;9.80;9.40;;;15.70;57.40;;;;;;5133575;27;20488;-77
2022/02/25 11:35:17;;;;;;;11.73;10.50;;;16.10;56.50;;;;;;5134009;27;20453;-76
2022/02/25 11:37:46;;;;;;;11.37;10.67;;;15.00;56.70;;;;;;5133655;27;20440;-75
2022/02/25 11:40:13;;;;;;;11.27;10.57;;;14.00;57.80;;;;;;5133500;27;20452;-76
2022/02/25 11:42:40;;;;;;;10.53;9.83;;;13.10;59.80;;;;;;5133478;27;20893;-75
2022/02/25 11:45:29;;;;;;;10.40;9.63;;;12.60;60.00;;;;;;5133400;27;20444;-76
2022/02/25 11:47:58;;;;;;;9.70;9.10;;;11.70;62.50;;;;;;5129921;27;20452;-77
2022/02/25 11:50:33;;;;;;;9.30;8.90;;;11.20;62.00;;;;;;5133083;27;20472;-76
2022/02/25 11:53:01;;;;;;;10.33;9.67;;;11.50;61.70;;;;;;5133526;27;20895;-77
2022/02/25 11:55:34;;;;;;;9.70;9.00;;;11.40;60.60;;;;;;5133370;27;20543;-76
2022/02/25 11:58:34;;;;;;;9.90;9.37;;;11.30;61.20;;;;;;5133443;27;20559;-76
2022/02/25 12:01:06;;;;;;;9.60;8.90;;;13.00;60.60;;;;;;5133089;27;20440;-76
2022/02/25 12:03:35;;;;;;;9.70;9.20;;;12.70;58.60;;;;;;5132932;27;20958;-76
2022/02/25 12:06:02;;;;;;;10.43;9.77;;;12.50;58.80;;;;;;5133315;27;20500;-77
2022/02/25 12:08:32;;;;;;;10.80;10.20;;;12.30;58.50;;;;;;5133149;27;20855;-76
2022/02/25 12:11:27;;;;;;;9.77;9.37;;;12.60;59.60;;;;;;5132871;27;20583;-75
2022/02/25 12:13:53;;;;;;;9.83;9.27;;;12.40;60.30;;;;;;5132658;27;20455;-75
2022/02/25 12:16:30;;;;;;;11.27;10.43;;;12.50;60.90;;;;;;5132555;27;20827;-75
2022/02/25 12:19:08;;;;;;;11.30;10.50;;;13.50;58.40;;;;;;5132513;27;20444;-75
2022/02/25 12:21:44;;;;;;;10.03;9.33;;;13.90;57.70;;;;;;5132609;27;20961;-75
2022/02/25 12:24:15;;;;;;;10.13;9.60;;;13.10;57.70;;;;;;5131531;27;20455;-75
2022/02/25 12:26:42;;;;;;;10.20;9.70;;;12.50;59.00;;;;;;5132679;27;20616;-76
2022/02/25 12:29:17;;;;;;;10.10;9.40;;;12.30;59.10;;;;;;5132275;27;20447;-75
2022/02/25 12:31:47;;;;;;;10.90;9.80;;;11.60;59.70;;;;;;5132221;27;20559;-76
2022/02/25 12:34:25;;;;;;;10.70;10.10;;;11.40;60.60;;;;;;5132307;27;20484;-75
2022/02/25 12:36:53;;;;;;;10.77;10.13;;;11.20;62.10;;;;;;5132342;27;20453;-74
2022/02/25 12:39:31;;;;;;;11.87;11.17;;;11.80;62.40;;;;;;5132511;27;20508;-74
2022/02/25 12:41:59;;;;;;;11.77;10.90;;;12.30;60.40;;;;;;5132172;27;20923;-75
2022/02/25 12:44:30;;;;;;;12.10;11.00;;;12.90;60.20;;;;;;5132048;27;20444;-75
2022/02/25 12:46:59;;;;;;;11.97;11.27;;;13.50;59.40;;;;;;5131910;27;20543;-75
2022/02/25 12:49:28;;;;;;;11.57;10.93;;;13.50;60.00;;;;;;5132023;27;20448;-75
2022/02/25 12:51:57;;;;;;;11.00;10.07;;;13.70;59.00;;;;;;5131815;27;20480;-75
2022/02/25 12:54:26;;;;;;;10.63;10.03;;;13.50;59.80;;;;;;5131935;27;20501;-76
2022/02/25 12:56:56;;;;;;;11.97;11.30;;;13.20;61.20;;;;;;5131892;27;20697;-77
2022/02/25 12:59:31;;;;;;;10.73;10.00;;;12.80;60.90;;;;;;5131757;27;20987;-77
2022/02/25 13:02:01;;;;;;;10.33;9.83;;;12.20;62.90;;;;;;5131779;27;20483;-77
2022/02/25 13:04:29;;;;;;;10.57;9.87;;;11.80;64.40;;;;;;5131794;27;20936;-76
2022/02/25 13:06:57;;;;;;;10.60;9.90;;;11.70;65.80;;;;;;5131345;27;20501;-76
2022/02/25 13:09:26;;;;;;;9.70;8.97;;;11.30;65.60;;;;;;5131297;27;20466;-76
2022/02/25 13:11:56;;;;;;;10.80;10.00;;;10.80;67.10;;;;;;5131526;27;20519;-76
2022/02/25 13:14:26;;;;;;;9.70;8.90;;;10.90;68.20;;;;;;5131448;27;20444;-74
2022/02/25 13:17:00;;;;;;;10.50;9.90;;;10.40;68.10;;;;;;5131684;27;20467;-75
2022/02/25 13:19:30;;;;;;;10.33;9.83;;;10.10;69.80;;;;;;5131806;27;20451;-75
2022/02/25 13:22:01;;;;;;;10.50;10.00;;;9.90;70.80;;;;;;5131589;27;20867;-75
2022/02/25 13:24:28;;;;;;;10.90;9.97;;;10.00;71.10;;;;;;5131494;27;20447;-76
2022/02/25 13:26:58;;;;;;;10.37;9.67;;;10.50;70.50;;;;;;5131316;27;20441;-76
2022/02/25 13:29:25;;;;;;;11.27;10.10;;;10.80;70.60;;;;;;5131275;27;20472;-76
2022/02/25 13:31:56;;;;;;;10.50;9.80;;;11.60;69.30;;;;;;5131211;27;20505;-76
2022/02/25 13:34:25;;;;;;;11.63;10.83;;;12.90;66.60;;;;;;5130924;27;20448;-76
2022/02/25 13:36:53;;;;;;;10.63;10.03;;;13.90;64.10;;;;;;5131063;27;20463;-75
2022/02/25 13:39:25;;;;;;;10.60;9.67;;;14.00;62.00;;;;;;5131219;27;20451;-75
2022/02/25 13:41:52;;;;;;;10.23;9.53;;;13.60;61.30;;;;;;5131209;27;20539;-75
2022/02/25 13:44:20;;;;;;;10.60;10.00;;;12.40;64.00;;;;;;5131179;27;20807;-75
2022/02/25 13:46:49;;;;;;;9.27;8.77;;;11.60;66.20;;;;;;5131354;27;20464;-74
2022/02/25 13:52:22;;;;;;;10.20;9.50;;;10.50;71.10;;;;;;5096393;27;20848;-76
2022/02/25 13:54:51;;;;;;;10.40;9.63;;;10.20;74.10;;;;;;5131122;27;20445;-76
2022/02/25 13:57:21;;;;;;;9.40;8.80;;;9.80;78.10;;;;;;5131141;27;20493;-76
2022/02/25 13:59:51;;;;;;;9.67;9.00;;;9.50;81.60;;;;;;5131258;27;20448;-76
2022/02/25 14:02:20;;;;;;;9.70;8.93;;;9.30;86.50;;;;;;5131550;27;20464;-76
2022/02/25 14:04:59;;;;;;;9.80;9.00;;;9.00;88.80;;;;;;5131131;27;20453;-76
2022/02/25 14:07:34;;;;;;;10.10;9.10;;;8.90;90.00;;;;;;5130842;27;20448;-75
2022/02/25 14:10:01;;;;;;;9.27;8.77;;;8.80;91.20;;;;;;5130841;27;20475;-75
2022/02/25 14:12:28;;;;;;;9.90;9.30;;;8.60;95.60;;;;;;5130759;27;20943;-74
2022/02/25 14:14:56;;;;;;;9.47;8.93;;;8.30;99.90;;;;;;5130664;27;20444;-75
2022/02/25 14:17:25;;;;;;;9.67;8.83;;;8.20;99.90;;;;;;5130753;27;20782;-74
2022/02/25 14:20:00;;;;;;;13.27;9.67;;;8.40;99.90;;;;;;5130690;27;20800;-75
2022/02/25 14:22:37;;;;;;;10.93;9.93;;;8.50;99.90;;;;;;5130728;27;20463;-76
2022/02/25 14:25:20;;;;;;;10.00;9.30;;;8.50;99.90;;;;;;5130771;27;20472;-75
2022/02/25 14:28:02;;;;;;;10.33;9.43;;;8.80;99.90;;;;;;5131116;27;20444;-75
2022/02/25 14:30:32;;;;;;;9.40;8.90;;;9.20;99.90;;;;;;5130612;27;20476;-75
2022/02/25 14:33:04;;;;;;;10.03;9.33;;;9.50;97.70;;;;;;5130743;27;20862;-76
2022/02/25 14:35:31;;;;;;;10.03;9.20;;;9.50;97.30;;;;;;5130932;27;20985;-76
2022/02/25 14:38:00;;;;;;;10.07;9.17;;;9.20;97.10;;;;;;5130617;27;20501;-77
2022/02/25 14:40:28;;;;;;;10.67;9.57;;;9.10;98.20;;;;;;5130393;27;20448;-75
2022/02/25 14:42:56;;;;;;;10.33;9.80;;;9.00;98.10;;;;;;5130503;27;20606;-75
2022/02/25 14:45:24;;;;;;;10.03;9.33;;;9.00;98.60;;;;;;5130616;27;20543;-76
2022/02/25 14:47:51;;;;;;;9.83;9.33;;;9.10;98.20;;;;;;5133840;27;20448;-77
2022/02/25 14:50:19;;;;;;;9.57;9.00;;;9.10;98.30;;;;;;5134352;27;20478;-76
2022/02/25 14:52:46;;;;;;;9.20;8.50;;;9.10;98.00;;;;;;5134592;27;20471;-76
2022/02/25 14:55:14;;;;;;;11.00;10.10;;;9.10;98.70;;;;;;5134247;27;20440;-76
2022/02/25 14:57:41;;;;;;;11.20;9.90;;;9.10;98.40;;;;;;5134161;27;20451;-77
2022/02/25 15:00:11;;;;;;;9.80;9.30;;;9.10;98.50;;;;;;5134051;27;20525;-76
2022/02/25 15:02:38;;;;;;;9.03;8.33;;;9.30;98.50;;;;;;5133910;27;20457;-77
2022/02/25 15:05:05;;;;;;;10.60;9.77;;;9.30;98.30;;;;;;5133993;27;20448;-76
2022/02/25 15:07:32;;;;;;;9.53;8.93;;;9.10;98.30;;;;;;5134249;27;20467;-76
2022/02/25 15:09:59;;;;;;;10.00;9.23;;;9.10;98.70;;;;;;5133453;27;20483;-76
2022/02/25 15:12:27;;;;;;;8.83;8.23;;;9.00;98.70;;;;;;5133509;27;20488;-75
2022/02/25 15:14:53;;;;;;;9.03;8.63;;;9.10;99.00;;;;;;5133827;27;20448;-76
2022/02/25 15:17:20;;;;;;;11.67;10.93;;;9.20;99.10;;;;;;5133573;27;20468;-76
2022/02/25 15:19:47;;;;;;;10.33;9.73;;;9.60;98.40;;;;;;5133890;27;20769;-76
2022/02/25 15:22:14;;;;;;;9.83;8.90;;;9.90;97.70;;;;;;5133659;27;20489;-77
2022/02/25 15:24:41;;;;;;;9.50;8.83;;;9.90;97.20;;;;;;5133424;27;20447;-76
2022/02/25 15:27:08;;;;;;;9.87;9.37;;;9.90;97.40;;;;;;5133504;27;20841;-76
2022/02/25 15:29:36;;;;;;;10.30;9.60;;;9.80;97.20;;;;;;5133602;27;20452;-75
2022/02/25 15:32:04;;;;;;;10.03;9.17;;;9.50;97.70;;;;;;5133580;27;20492;-76
2022/02/25 15:34:31;;;;;;;9.90;9.30;;;9.30;97.90;;;;;;5133899;27;20437;-76
2022/02/25 15:36:58;;;;;;;9.90;9.20;;;9.20;98.30;;;;;;5133128;27;20432;-77
2022/02/25 15:39:25;;;;;;;11.00;10.10;;;8.80;98.90;;;;;;5133286;27;20448;-77
2022/02/25 15:41:52;;;;;;;11.07;10.10;;;8.60;99.60;;;;;;5133350;27;20541;-76
2022/02/25 15:44:20;;;;;;;9.90;9.10;;;8.50;99.90;;;;;;5133317;27;20551;-76
2022/02/25 15:46:48;;;;;;;12.23;10.70;;;8.50;99.90;;;;;;5133628;27;20449;-76
2022/02/25 15:49:15;;;;;;;11.70;10.50;;;8.50;99.90;;;;;;5132978;27;20468;-76
2022/02/25 15:51:42;;;;;;;11.00;10.03;;;8.40;99.90;;;;;;5132855;27;20502;-77
2022/02/25 15:54:09;;;;;;;9.60;9.00;;;8.30;99.90;;;;;;5132895;27;20459;-74
2022/02/25 15:56:37;;;;;;;11.30;9.30;;;8.30;99.90;;;;;;5132882;27;20452;-76
2022/02/25 15:59:05;;;;;;;10.27;9.80;;;8.10;99.90;;;;;;5133044;27;20505;-76
2022/02/25 16:01:32;;;;;;;10.67;9.97;;;8.10;99.90;;;;;;5132828;27;20472;-76
2022/02/25 16:04:00;;;;;;;11.73;10.57;;;8.10;99.90;;;;;;5133041;27;20441;-76
2022/02/25 16:06:28;;;;;;;10.70;10.00;;;8.10;99.90;;;;;;5132439;27;20456;-76
2022/02/25 16:08:55;;;;;;;9.97;9.27;;;8.10;99.90;;;;;;5132580;27;20935;-76
2022/02/25 16:11:22;;;;;;;11.33;9.13;;;8.00;99.90;;;;;;5132267;27;20496;-76
2022/02/25 16:13:50;;;;;;;8.63;7.90;;;8.10;99.90;;;;;;5132382;27;20501;-76
2022/02/25 16:16:17;;;;;;;10.17;9.47;;;8.00;99.90;;;;;;5132790;27;20451;-76
2022/02/25 16:18:43;;;;;;;10.37;9.37;;;8.00;99.90;;;;;;5132483;27;20493;-76
2022/02/25 16:21:12;;;;;;;9.67;8.73;;;8.00;99.90;;;;;;5132426;27;20443;-76
2022/02/25 16:23:40;;;;;;;10.63;9.37;;;7.90;99.90;;;;;;5132504;27;20476;-76
2022/02/25 16:26:07;;;;;;;9.83;9.13;;;7.80;99.90;;;;;;5132657;27;20444;-77
2022/02/25 16:28:34;;;;;;;9.90;9.20;;;7.80;99.90;;;;;;5132744;27;20444;-77
2022/02/25 16:31:01;;;;;;;10.07;9.47;;;7.60;99.90;;;;;;5132770;27;20532;-77
2022/02/25 16:33:28;;;;;;;9.70;8.90;;;7.50;99.90;;;;;;5132663;27;20448;-76
2022/02/25 16:35:55;;;;;;;12.17;9.40;;;7.40;99.90;;;;;;5132107;27;20876;-76
2022/02/25 16:38:23;;;;;;;10.70;9.70;;;7.40;99.90;;;;;;5132519;27;20568;-76
2022/02/25 16:40:49;;;;;;;9.10;8.27;;;7.40;99.90;;;;;;5132300;27;20885;-76
2022/02/25 16:43:16;;;;;;;8.53;7.83;;;7.40;99.90;;;;;;5132422;27;20449;-76
2022/02/25 16:45:43;;;;;;;9.17;8.70;;;7.40;99.90;;;;;;5132041;27;20514;-74
2022/02/25 16:48:10;;;;;;;9.17;8.60;;;7.40;99.90;;;;;;5131750;27;20476;-76
2022/02/25 16:50:37;;;;;;;9.37;8.70;;;7.40;99.90;;;;;;5131813;27;20618;-76
2022/02/25 16:53:04;;;;;;;10.00;9.40;;;7.30;99.90;;;;;;5131937;27;20549;-76
2022/02/25 16:55:32;;;;;;;9.83;9.13;;;7.30;99.90;;;;;;5132425;27;20479;-77
2022/02/25 16:57:59;;;;;;;10.17;9.57;;;7.10;99.90;;;;;;5132119;27;20448;-76
2022/02/25 17:00:26;;;;;;;10.30;9.33;;;7.00;99.90;;;;;;5131836;27;20452;-76
2022/02/25 17:02:53;;;;;;;9.93;9.13;;;6.90;99.90;;;;;;5131551;27;20849;-75
2022/02/25 17:05:19;;;;;;;9.80;8.90;;;6.80;99.90;;;;;;5131739;27;21090;-75
2022/02/25 17:07:46;;;;;;;9.70;8.90;;;6.80;99.90;;;;;;5131958;27;20469;-75
2022/02/25 17:10:13;;;;;;;11.07;9.60;;;6.70;99.90;;;;;;5130930;27;20539;-75
2022/02/25 17:12:42;;;;;;;9.90;9.20;;;6.70;99.90;;;;;;5131358;27;20826;-75
2022/02/25 17:15:10;;;;;;;10.10;9.50;;;6.70;99.90;;;;;;5131672;27;20967;-76
2022/02/25 17:17:37;;;;;;;8.67;8.17;;;6.70;99.90;;;;;;5131438;27;20458;-75
2022/02/25 17:20:04;;;;;;;10.63;9.73;;;6.70;99.90;;;;;;5131671;27;20449;-75
2022/02/25 17:22:31;;;;;;;9.93;9.23;;;6.70;99.90;;;;;;5131720;27;20452;-75
2022/02/25 17:24:58;;;;;;;10.20;9.50;;;6.60;99.90;;;;;;5131410;27;20447;-76
2022/02/25 17:27:25;;;;;;;9.40;8.70;;;6.50;99.90;;;;;;5131286;27;20882;-75
2022/02/25 17:29:53;;;;;;;10.13;9.23;;;6.50;99.90;;;;;;5131252;27;20545;-75
2022/02/25 17:32:20;;;;;;;9.50;8.60;;;6.50;99.90;;;;;;5130946;27;20487;-76
2022/02/25 17:34:47;;;;;;;9.57;9.00;;;6.30;99.90;;;;;;5131360;27;20451;-75
2022/02/25 17:37:13;;;;;;;10.47;9.37;;;6.10;99.90;;;;;;5131074;27;20446;-76
2022/02/25 17:39:40;;;;;;;9.00;8.40;;;6.00;99.90;;;;;;5131132;27;20452;-76
2022/02/25 17:42:09;;;;;;;10.50;9.60;;;5.90;99.90;;;;;;5130972;27;20446;-76
2022/02/25 17:44:39;;;;;;;10.77;9.73;;;5.70;99.90;;;;;;5130939;27;20455;-75
2022/02/25 17:47:07;;;;;;;9.07;8.57;;;5.70;99.90;;;;;;5130894;27;20482;-75
2022/02/25 17:49:34;;;;;;;9.43;8.93;;;5.60;99.90;;;;;;5130842;27;20445;-75
2022/02/25 17:52:00;;;;;;;9.77;9.03;;;5.60;99.90;;;;;;5131258;27;20483;-76
2022/02/25 17:54:27;;;;;;;10.63;9.73;;;5.60;99.90;;;;;;5131182;27;20787;-74
2022/02/25 17:56:56;;;;;;;10.17;9.20;;;5.50;99.90;;;;;;5130999;27;20457;-74
